sensor_id;sensor_type;location;lat;lon;timestamp;P1;durP1;ratioP1;P2;durP2;ratioP2
17171;SDS011;8701;50.150;8.756;2023-09-07T00:01:16;5.97;;;3.33;;
17171;SDS011;8701;50.150;8.756;2023-09-07T00:05:19;5.93;;;3.23;;
17171;SDS011;8701;50.150;8.756;2023-09-07T00:09:22;5.30;;;3.50;;
17171;SDS011;8701;50.150;8.756;2023-09-07T00:13:24;5.07;;;4.00;;
17171;SDS011;8701;50.150;8.756;2023-09-07T00:17:27;4.80;;;3.40;;
17171;SDS011;8701;50.150;8.756;2023-09-07T00:21:29;5.73;;;3.83;;
17171;SDS011;8701;50.150;8.756;2023-09-07T00:25:32;5.77;;;3.53;;
17171;SDS011;8701;50.150;8.756;2023-09-07T00:29:35;4.13;;;3.20;;
17171;SDS011;8701;50.150;8.756;2023-09-07T00:33:37;6.03;;;3.20;;
17171;SDS011;8701;50.150;8.756;2023-09-07T00:37:39;5.57;;;3.30;;
17171;SDS011;8701;50.150;8.756;2023-09-07T00:41:43;4.10;;;3.70;;
17171;SDS011;8701;50.150;8.756;2023-09-07T00:45:45;3.30;;;3.00;;
17171;SDS011;8701;50.150;8.756;2023-09-07T00:49:49;5.83;;;3.53;;
17171;SDS011;8701;50.150;8.756;2023-09-07T00:53:51;6.20;;;3.87;;
17171;SDS011;8701;50.150;8.756;2023-09-07T00:57:56;4.77;;;3.60;;
17171;SDS011;8701;50.150;8.756;2023-09-07T01:01:58;3.50;;;3.20;;
17171;SDS011;8701;50.150;8.756;2023-09-07T01:06:03;3.30;;;3.00;;
17171;SDS011;8701;50.150;8.756;2023-09-07T01:10:09;3.50;;;3.20;;
17171;SDS011;8701;50.150;8.756;2023-09-07T01:14:13;5.50;;;3.67;;
17171;SDS011;8701;50.150;8.756;2023-09-07T01:18:15;3.60;;;3.30;;
17171;SDS011;8701;50.150;8.756;2023-09-07T01:22:20;4.07;;;3.20;;
17171;SDS011;8701;50.150;8.756;2023-09-07T01:26:23;4.50;;;3.70;;
17171;SDS011;8701;50.150;8.756;2023-09-07T01:30:26;4.53;;;3.40;;
17171;SDS011;8701;50.150;8.756;2023-09-07T01:34:29;4.50;;;3.30;;
17171;SDS011;8701;50.150;8.756;2023-09-07T01:38:32;5.97;;;3.70;;
17171;SDS011;8701;50.150;8.756;2023-09-07T01:42:34;7.03;;;3.67;;
17171;SDS011;8701;50.150;8.756;2023-09-07T01:46:36;4.50;;;3.67;;
17171;SDS011;8701;50.150;8.756;2023-09-07T01:50:39;5.83;;;3.10;;
17171;SDS011;8701;50.150;8.756;2023-09-07T01:54:42;5.80;;;3.80;;
17171;SDS011;8701;50.150;8.756;2023-09-07T01:58:44;4.87;;;4.00;;
17171;SDS011;8701;50.150;8.756;2023-09-07T02:02:47;5.80;;;4.17;;
17171;SDS011;8701;50.150;8.756;2023-09-07T02:06:49;4.27;;;3.73;;
17171;SDS011;8701;50.150;8.756;2023-09-07T02:10:53;5.00;;;4.13;;
17171;SDS011;8701;50.150;8.756;2023-09-07T02:14:58;5.37;;;3.73;;
17171;SDS011;8701;50.150;8.756;2023-09-07T02:19:03;4.20;;;3.80;;
17171;SDS011;8701;50.150;8.756;2023-09-07T02:23:07;4.20;;;3.77;;
17171;SDS011;8701;50.150;8.756;2023-09-07T02:27:11;4.60;;;4.10;;
17171;SDS011;8701;50.150;8.756;2023-09-07T02:31:13;6.33;;;4.13;;
17171;SDS011;8701;50.150;8.756;2023-09-07T02:35:15;5.47;;;4.07;;
17171;SDS011;8701;50.150;8.756;2023-09-07T02:39:17;6.47;;;3.90;;
17171;SDS011;8701;50.150;8.756;2023-09-07T02:43:22;5.30;;;3.83;;
17171;SDS011;8701;50.150;8.756;2023-09-07T02:47:24;3.90;;;3.50;;
17171;SDS011;8701;50.150;8.756;2023-09-07T02:51:26;4.50;;;3.93;;
17171;SDS011;8701;50.150;8.756;2023-09-07T02:55:30;5.13;;;3.70;;
17171;SDS011;8701;50.150;8.756;2023-09-07T02:59:33;4.67;;;3.90;;
17171;SDS011;8701;50.150;8.756;2023-09-07T03:03:36;4.50;;;3.67;;
17171;SDS011;8701;50.150;8.756;2023-09-07T03:07:44;5.27;;;3.43;;
17171;SDS011;8701;50.150;8.756;2023-09-07T03:11:47;4.17;;;3.73;;
17171;SDS011;8701;50.150;8.756;2023-09-07T03:15:54;5.87;;;4.23;;
17171;SDS011;8701;50.150;8.756;2023-09-07T03:19:56;5.10;;;3.93;;
17171;SDS011;8701;50.150;8.756;2023-09-07T03:24:00;7.67;;;4.13;;
17171;SDS011;8701;50.150;8.756;2023-09-07T03:28:03;5.10;;;4.00;;
17171;SDS011;8701;50.150;8.756;2023-09-07T03:32:08;4.60;;;4.20;;
17171;SDS011;8701;50.150;8.756;2023-09-07T03:36:11;7.30;;;4.13;;
17171;SDS011;8701;50.150;8.756;2023-09-07T03:40:16;4.30;;;3.90;;
17171;SDS011;8701;50.150;8.756;2023-09-07T03:44:19;4.50;;;4.10;;
17171;SDS011;8701;50.150;8.756;2023-09-07T03:48:23;4.63;;;4.20;;
17171;SDS011;8701;50.150;8.756;2023-09-07T03:52:25;6.97;;;4.40;;
17171;SDS011;8701;50.150;8.756;2023-09-07T03:56:31;4.40;;;4.00;;
17171;SDS011;8701;50.150;8.756;2023-09-07T04:00:33;6.80;;;4.43;;
17171;SDS011;8701;50.150;8.756;2023-09-07T04:04:38;4.80;;;4.30;;
17171;SDS011;8701;50.150;8.756;2023-09-07T04:08:41;7.80;;;4.57;;
17171;SDS011;8701;50.150;8.756;2023-09-07T04:12:43;5.83;;;4.47;;
17171;SDS011;8701;50.150;8.756;2023-09-07T04:16:46;4.97;;;4.00;;
17171;SDS011;8701;50.150;8.756;2023-09-07T04:20:49;8.10;;;3.87;;
17171;SDS011;8701;50.150;8.756;2023-09-07T04:24:52;4.97;;;4.23;;
17171;SDS011;8701;50.150;8.756;2023-09-07T04:28:54;7.30;;;4.37;;
17171;SDS011;8701;50.150;8.756;2023-09-07T04:32:56;10.60;;;4.40;;
17171;SDS011;8701;50.150;8.756;2023-09-07T04:37:00;8.53;;;4.57;;
17171;SDS011;8701;50.150;8.756;2023-09-07T04:41:06;7.20;;;4.13;;
17171;SDS011;8701;50.150;8.756;2023-09-07T04:45:09;12.70;;;5.03;;
17171;SDS011;8701;50.150;8.756;2023-09-07T04:49:12;8.80;;;5.20;;
17171;SDS011;8701;50.150;8.756;2023-09-07T04:53:15;4.60;;;4.10;;
17171;SDS011;8701;50.150;8.756;2023-09-07T04:57:18;8.00;;;4.20;;
17171;SDS011;8701;50.150;8.756;2023-09-07T05:01:21;5.23;;;4.37;;
17171;SDS011;8701;50.150;8.756;2023-09-07T05:05:25;10.03;;;5.10;;
17171;SDS011;8701;50.150;8.756;2023-09-07T05:09:29;10.50;;;5.20;;
17171;SDS011;8701;50.150;8.756;2023-09-07T05:13:32;7.70;;;4.37;;
17171;SDS011;8701;50.150;8.756;2023-09-07T05:17:36;6.10;;;4.80;;
17171;SDS011;8701;50.150;8.756;2023-09-07T05:21:39;4.53;;;4.10;;
17171;SDS011;8701;50.150;8.756;2023-09-07T05:25:46;7.97;;;5.17;;
17171;SDS011;8701;50.150;8.756;2023-09-07T05:29:50;5.77;;;5.03;;
17171;SDS011;8701;50.150;8.756;2023-09-07T05:33:53;6.00;;;5.40;;
17171;SDS011;8701;50.150;8.756;2023-09-07T05:37:55;6.03;;;4.30;;
17171;SDS011;8701;50.150;8.756;2023-09-07T05:41:58;7.90;;;5.00;;
17171;SDS011;8701;50.150;8.756;2023-09-07T05:46:01;6.60;;;4.67;;
17171;SDS011;8701;50.150;8.756;2023-09-07T05:50:04;5.13;;;4.47;;
17171;SDS011;8701;50.150;8.756;2023-09-07T05:54:07;6.40;;;4.27;;
17171;SDS011;8701;50.150;8.756;2023-09-07T05:58:12;5.00;;;4.30;;
17171;SDS011;8701;50.150;8.756;2023-09-07T06:02:18;5.50;;;4.63;;
17171;SDS011;8701;50.150;8.756;2023-09-07T06:06:20;4.90;;;4.40;;
17171;SDS011;8701;50.150;8.756;2023-09-07T06:10:23;8.67;;;4.47;;
17171;SDS011;8701;50.150;8.756;2023-09-07T06:14:27;5.23;;;4.43;;
17171;SDS011;8701;50.150;8.756;2023-09-07T06:18:29;5.50;;;4.60;;
17171;SDS011;8701;50.150;8.756;2023-09-07T06:22:31;5.63;;;3.70;;
17171;SDS011;8701;50.150;8.756;2023-09-07T06:26:34;5.43;;;4.27;;
17171;SDS011;8701;50.150;8.756;2023-09-07T06:30:39;4.60;;;4.20;;
17171;SDS011;8701;50.150;8.756;2023-09-07T06:34:42;5.53;;;4.30;;
17171;SDS011;8701;50.150;8.756;2023-09-07T06:38:44;6.40;;;4.23;;
17171;SDS011;8701;50.150;8.756;2023-09-07T06:42:47;6.40;;;5.13;;
17171;SDS011;8701;50.150;8.756;2023-09-07T06:46:53;5.73;;;4.37;;
17171;SDS011;8701;50.150;8.756;2023-09-07T06:51:00;10.97;;;4.60;;
17171;SDS011;8701;50.150;8.756;2023-09-07T06:55:05;5.30;;;4.10;;
17171;SDS011;8701;50.150;8.756;2023-09-07T06:59:08;5.27;;;4.07;;
17171;SDS011;8701;50.150;8.756;2023-09-07T07:03:11;6.27;;;4.10;;
17171;SDS011;8701;50.150;8.756;2023-09-07T07:07:14;8.17;;;4.23;;
17171;SDS011;8701;50.150;8.756;2023-09-07T07:11:16;6.17;;;4.33;;
17171;SDS011;8701;50.150;8.756;2023-09-07T07:15:19;5.77;;;3.87;;
17171;SDS011;8701;50.150;8.756;2023-09-07T07:19:23;4.20;;;3.80;;
17171;SDS011;8701;50.150;8.756;2023-09-07T07:23:26;5.60;;;4.27;;
17171;SDS011;8701;50.150;8.756;2023-09-07T07:27:28;5.87;;;4.03;;
17171;SDS011;8701;50.150;8.756;2023-09-07T07:31:31;5.90;;;4.03;;
17171;SDS011;8701;50.150;8.756;2023-09-07T07:35:35;4.57;;;3.50;;
17171;SDS011;8701;50.150;8.756;2023-09-07T07:39:38;5.90;;;4.03;;
17171;SDS011;8701;50.150;8.756;2023-09-07T07:43:41;4.60;;;3.53;;
17171;SDS011;8701;50.150;8.756;2023-09-07T07:47:43;4.23;;;3.40;;
17171;SDS011;8701;50.150;8.756;2023-09-07T07:51:47;4.33;;;3.50;;
17171;SDS011;8701;50.150;8.756;2023-09-07T07:55:50;4.43;;;4.03;;
17171;SDS011;8701;50.150;8.756;2023-09-07T07:59:55;4.00;;;3.70;;
17171;SDS011;8701;50.150;8.756;2023-09-07T08:03:58;3.63;;;3.30;;
17171;SDS011;8701;50.150;8.756;2023-09-07T08:08:02;5.93;;;3.30;;
17171;SDS011;8701;50.150;8.756;2023-09-07T08:12:05;4.63;;;3.57;;
17171;SDS011;8701;50.150;8.756;2023-09-07T08:16:08;3.70;;;3.40;;
17171;SDS011;8701;50.150;8.756;2023-09-07T08:20:11;3.47;;;3.17;;
17171;SDS011;8701;50.150;8.756;2023-09-07T08:24:14;3.40;;;3.13;;
17171;SDS011;8701;50.150;8.756;2023-09-07T08:28:17;4.87;;;2.83;;
17171;SDS011;8701;50.150;8.756;2023-09-07T08:32:22;3.30;;;3.00;;
17171;SDS011;8701;50.150;8.756;2023-09-07T08:36:24;3.43;;;3.13;;
17171;SDS011;8701;50.150;8.756;2023-09-07T08:40:30;3.17;;;2.90;;
17171;SDS011;8701;50.150;8.756;2023-09-07T08:44:34;3.43;;;2.90;;
17171;SDS011;8701;50.150;8.756;2023-09-07T08:48:38;2.80;;;2.60;;
17171;SDS011;8701;50.150;8.756;2023-09-07T08:52:41;12.27;;;2.60;;
17171;SDS011;8701;50.150;8.756;2023-09-07T08:56:47;9.10;;;2.67;;
17171;SDS011;8701;50.150;8.756;2023-09-07T09:00:51;2.80;;;2.60;;
17171;SDS011;8701;50.150;8.756;2023-09-07T09:04:53;2.40;;;2.30;;
17171;SDS011;8701;50.150;8.756;2023-09-07T09:08:56;2.60;;;2.40;;
17171;SDS011;8701;50.150;8.756;2023-09-07T09:13:00;2.60;;;2.50;;
17171;SDS011;8701;50.150;8.756;2023-09-07T09:17:02;2.50;;;2.30;;
17171;SDS011;8701;50.150;8.756;2023-09-07T09:21:05;5.80;;;2.40;;
17171;SDS011;8701;50.150;8.756;2023-09-07T09:25:08;2.00;;;1.90;;
17171;SDS011;8701;50.150;8.756;2023-09-07T09:29:12;2.40;;;2.20;;
17171;SDS011;8701;50.150;8.756;2023-09-07T09:33:16;2.33;;;2.13;;
17171;SDS011;8701;50.150;8.756;2023-09-07T09:37:21;3.20;;;2.30;;
17171;SDS011;8701;50.150;8.756;2023-09-07T09:41:23;3.10;;;2.40;;
17171;SDS011;8701;50.150;8.756;2023-09-07T09:45:28;2.27;;;2.17;;
17171;SDS011;8701;50.150;8.756;2023-09-07T09:49:31;2.50;;;1.97;;
17171;SDS011;8701;50.150;8.756;2023-09-07T09:53:34;6.30;;;1.87;;
17171;SDS011;8701;50.150;8.756;2023-09-07T09:57:37;3.80;;;1.97;;
17171;SDS011;8701;50.150;8.756;2023-09-07T10:01:43;2.13;;;2.03;;
17171;SDS011;8701;50.150;8.756;2023-09-07T10:05:46;2.60;;;1.80;;
17171;SDS011;8701;50.150;8.756;2023-09-07T10:09:48;1.80;;;1.70;;
17171;SDS011;8701;50.150;8.756;2023-09-07T10:13:56;1.90;;;1.80;;
17171;SDS011;8701;50.150;8.756;2023-09-07T10:18:04;2.00;;;1.90;;
17171;SDS011;8701;50.150;8.756;2023-09-07T10:22:07;2.07;;;1.90;;
17171;SDS011;8701;50.150;8.756;2023-09-07T10:26:10;1.83;;;1.60;;
17171;SDS011;8701;50.150;8.756;2023-09-07T10:30:14;2.67;;;1.80;;
17171;SDS011;8701;50.150;8.756;2023-09-07T10:34:21;2.40;;;1.50;;
17171;SDS011;8701;50.150;8.756;2023-09-07T10:38:25;2.40;;;2.20;;
17171;SDS011;8701;50.150;8.756;2023-09-07T10:42:27;2.73;;;2.00;;
17171;SDS011;8701;50.150;8.756;2023-09-07T10:46:29;4.00;;;1.87;;
17171;SDS011;8701;50.150;8.756;2023-09-07T10:50:42;2.03;;;1.93;;
17171;SDS011;8701;50.150;8.756;2023-09-07T10:54:45;1.90;;;1.60;;
17171;SDS011;8701;50.150;8.756;2023-09-07T10:58:57;1.60;;;1.50;;
17171;SDS011;8701;50.150;8.756;2023-09-07T11:03:05;1.50;;;1.40;;
17171;SDS011;8701;50.150;8.756;2023-09-07T11:07:10;2.08;;;1.98;;
17171;SDS011;8701;50.150;8.756;2023-09-07T11:11:13;1.60;;;1.55;;
17171;SDS011;8701;50.150;8.756;2023-09-07T11:15:15;1.40;;;1.40;;
17171;SDS011;8701;50.150;8.756;2023-09-07T11:19:21;1.77;;;1.42;;
17171;SDS011;8701;50.150;8.756;2023-09-07T11:23:25;1.83;;;1.73;;
17171;SDS011;8701;50.150;8.756;2023-09-07T11:27:28;1.80;;;1.70;;
17171;SDS011;8701;50.150;8.756;2023-09-07T11:31:31;2.25;;;2.15;;
17171;SDS011;8701;50.150;8.756;2023-09-07T11:35:33;1.58;;;1.48;;
17171;SDS011;8701;50.150;8.756;2023-09-07T11:39:37;1.60;;;1.50;;
17171;SDS011;8701;50.150;8.756;2023-09-07T11:43:39;5.15;;;1.67;;
17171;SDS011;8701;50.150;8.756;2023-09-07T11:47:42;2.83;;;2.05;;
17171;SDS011;8701;50.150;8.756;2023-09-07T11:51:44;1.85;;;1.50;;
17171;SDS011;8701;50.150;8.756;2023-09-07T11:55:48;2.25;;;1.45;;
17171;SDS011;8701;50.150;8.756;2023-09-07T11:59:51;1.60;;;1.50;;
17171;SDS011;8701;50.150;8.756;2023-09-07T12:03:53;1.90;;;1.80;;
17171;SDS011;8701;50.150;8.756;2023-09-07T12:07:56;1.42;;;1.40;;
17171;SDS011;8701;50.150;8.756;2023-09-07T12:11:59;1.88;;;1.50;;
17171;SDS011;8701;50.150;8.756;2023-09-07T12:16:01;1.50;;;1.50;;
17171;SDS011;8701;50.150;8.756;2023-09-07T12:20:04;1.55;;;1.45;;
17171;SDS011;8701;50.150;8.756;2023-09-07T12:24:10;1.90;;;1.80;;
17171;SDS011;8701;50.150;8.756;2023-09-07T12:28:14;1.42;;;1.42;;
17171;SDS011;8701;50.150;8.756;2023-09-07T12:32:16;1.75;;;1.65;;
17171;SDS011;8701;50.150;8.756;2023-09-07T12:36:19;1.70;;;1.58;;
17171;SDS011;8701;50.150;8.756;2023-09-07T12:40:22;2.78;;;1.83;;
17171;SDS011;8701;50.150;8.756;2023-09-07T12:44:25;2.35;;;1.60;;
17171;SDS011;8701;50.150;8.756;2023-09-07T12:48:27;2.13;;;1.60;;
17171;SDS011;8701;50.150;8.756;2023-09-07T12:52:30;1.88;;;1.77;;
17171;SDS011;8701;50.150;8.756;2023-09-07T12:56:32;2.00;;;1.77;;
17171;SDS011;8701;50.150;8.756;2023-09-07T13:00:36;1.80;;;1.80;;
17171;SDS011;8701;50.150;8.756;2023-09-07T13:04:38;1.65;;;1.55;;
17171;SDS011;8701;50.150;8.756;2023-09-07T13:08:40;1.52;;;1.52;;
17171;SDS011;8701;50.150;8.756;2023-09-07T13:12:43;2.13;;;1.95;;
17171;SDS011;8701;50.150;8.756;2023-09-07T13:16:46;1.60;;;1.60;;
17171;SDS011;8701;50.150;8.756;2023-09-07T13:20:51;2.90;;;1.80;;
17171;SDS011;8701;50.150;8.756;2023-09-07T13:24:56;2.00;;;1.90;;
17171;SDS011;8701;50.150;8.756;2023-09-07T13:28:58;1.90;;;1.80;;
17171;SDS011;8701;50.150;8.756;2023-09-07T13:33:02;2.00;;;1.90;;
17171;SDS011;8701;50.150;8.756;2023-09-07T13:37:04;2.10;;;1.90;;
17171;SDS011;8701;50.150;8.756;2023-09-07T13:41:06;2.00;;;1.90;;
17171;SDS011;8701;50.150;8.756;2023-09-07T13:45:09;2.00;;;1.90;;
17171;SDS011;8701;50.150;8.756;2023-09-07T13:49:13;2.93;;;1.77;;
17171;SDS011;8701;50.150;8.756;2023-09-07T13:53:15;1.90;;;1.80;;
17171;SDS011;8701;50.150;8.756;2023-09-07T13:57:17;2.67;;;2.20;;
17171;SDS011;8701;50.150;8.756;2023-09-07T14:01:20;2.10;;;2.00;;
17171;SDS011;8701;50.150;8.756;2023-09-07T14:05:24;1.87;;;1.77;;
17171;SDS011;8701;50.150;8.756;2023-09-07T14:09:26;2.70;;;2.60;;
17171;SDS011;8701;50.150;8.756;2023-09-07T14:13:28;2.50;;;2.30;;
17171;SDS011;8701;50.150;8.756;2023-09-07T14:17:30;2.30;;;2.20;;
17171;SDS011;8701;50.150;8.756;2023-09-07T14:21:34;2.40;;;2.30;;
17171;SDS011;8701;50.150;8.756;2023-09-07T14:25:36;2.53;;;2.33;;
17171;SDS011;8701;50.150;8.756;2023-09-07T14:29:42;7.67;;;3.20;;
17171;SDS011;8701;50.150;8.756;2023-09-07T14:33:44;5.27;;;3.00;;
17171;SDS011;8701;50.150;8.756;2023-09-07T14:37:48;3.17;;;2.63;;
17171;SDS011;8701;50.150;8.756;2023-09-07T14:41:50;3.43;;;3.17;;
17171;SDS011;8701;50.150;8.756;2023-09-07T14:45:53;3.60;;;2.80;;
17171;SDS011;8701;50.150;8.756;2023-09-07T14:49:56;3.63;;;3.30;;
17171;SDS011;8701;50.150;8.756;2023-09-07T14:53:59;3.63;;;3.20;;
17171;SDS011;8701;50.150;8.756;2023-09-07T14:58:02;3.20;;;2.90;;
17171;SDS011;8701;50.150;8.756;2023-09-07T15:02:05;4.37;;;3.00;;
17171;SDS011;8701;50.150;8.756;2023-09-07T15:06:08;5.40;;;2.80;;
17171;SDS011;8701;50.150;8.756;2023-09-07T15:10:13;4.87;;;3.50;;
17171;SDS011;8701;50.150;8.756;2023-09-07T15:14:16;3.47;;;3.17;;
17171;SDS011;8701;50.150;8.756;2023-09-07T15:18:18;3.20;;;2.90;;
17171;SDS011;8701;50.150;8.756;2023-09-07T15:22:21;3.53;;;2.90;;
17171;SDS011;8701;50.150;8.756;2023-09-07T15:26:24;3.63;;;3.33;;
17171;SDS011;8701;50.150;8.756;2023-09-07T15:30:26;3.27;;;3.00;;
17171;SDS011;8701;50.150;8.756;2023-09-07T15:34:28;3.73;;;3.27;;
17171;SDS011;8701;50.150;8.756;2023-09-07T15:38:31;3.60;;;3.20;;
17171;SDS011;8701;50.150;8.756;2023-09-07T15:42:34;4.93;;;2.90;;
17171;SDS011;8701;50.150;8.756;2023-09-07T15:46:37;3.23;;;2.90;;
17171;SDS011;8701;50.150;8.756;2023-09-07T15:50:40;4.83;;;3.13;;
17171;SDS011;8701;50.150;8.756;2023-09-07T15:54:42;4.23;;;3.20;;
17171;SDS011;8701;50.150;8.756;2023-09-07T15:58:46;6.20;;;3.37;;
17171;SDS011;8701;50.150;8.756;2023-09-07T16:02:48;6.67;;;3.17;;
17171;SDS011;8701;50.150;8.756;2023-09-07T16:06:50;5.63;;;3.33;;
17171;SDS011;8701;50.150;8.756;2023-09-07T16:10:53;3.87;;;3.40;;
17171;SDS011;8701;50.150;8.756;2023-09-07T16:14:58;6.57;;;3.77;;
17171;SDS011;8701;50.150;8.756;2023-09-07T16:19:00;4.43;;;3.37;;
17171;SDS011;8701;50.150;8.756;2023-09-07T16:23:02;3.40;;;3.10;;
17171;SDS011;8701;50.150;8.756;2023-09-07T16:27:05;4.33;;;3.47;;
17171;SDS011;8701;50.150;8.756;2023-09-07T16:31:09;5.10;;;3.27;;
17171;SDS011;8701;50.150;8.756;2023-09-07T16:35:11;4.33;;;3.20;;
17171;SDS011;8701;50.150;8.756;2023-09-07T16:39:13;3.93;;;3.40;;
17171;SDS011;8701;50.150;8.756;2023-09-07T16:43:15;3.67;;;3.37;;
17171;SDS011;8701;50.150;8.756;2023-09-07T16:47:19;3.80;;;3.40;;
17171;SDS011;8701;50.150;8.756;2023-09-07T16:51:21;6.37;;;3.60;;
17171;SDS011;8701;50.150;8.756;2023-09-07T16:55:23;3.63;;;3.23;;
17171;SDS011;8701;50.150;8.756;2023-09-07T16:59:26;4.03;;;3.57;;
17171;SDS011;8701;50.150;8.756;2023-09-07T17:03:29;6.10;;;3.20;;
17171;SDS011;8701;50.150;8.756;2023-09-07T17:07:32;4.83;;;3.43;;
17171;SDS011;8701;50.150;8.756;2023-09-07T17:11:34;6.60;;;3.30;;
17171;SDS011;8701;50.150;8.756;2023-09-07T17:15:36;3.80;;;3.50;;
17171;SDS011;8701;50.150;8.756;2023-09-07T17:19:40;6.53;;;4.20;;
17171;SDS011;8701;50.150;8.756;2023-09-07T17:23:42;4.10;;;3.30;;
17171;SDS011;8701;50.150;8.756;2023-09-07T17:27:44;4.10;;;3.33;;
17171;SDS011;8701;50.150;8.756;2023-09-07T17:31:48;9.30;;;3.80;;
17171;SDS011;8701;50.150;8.756;2023-09-07T17:35:51;5.83;;;3.70;;
17171;SDS011;8701;50.150;8.756;2023-09-07T17:39:56;4.60;;;3.30;;
17171;SDS011;8701;50.150;8.756;2023-09-07T17:43:58;10.10;;;3.70;;
17171;SDS011;8701;50.150;8.756;2023-09-07T17:48:01;3.97;;;3.57;;
17171;SDS011;8701;50.150;8.756;2023-09-07T17:52:04;6.40;;;3.57;;
17171;SDS011;8701;50.150;8.756;2023-09-07T17:56:08;6.13;;;3.33;;
17171;SDS011;8701;50.150;8.756;2023-09-07T18:00:11;8.10;;;3.50;;
17171;SDS011;8701;50.150;8.756;2023-09-07T18:04:14;7.97;;;3.73;;
17171;SDS011;8701;50.150;8.756;2023-09-07T18:08:18;5.63;;;3.80;;
17171;SDS011;8701;50.150;8.756;2023-09-07T18:12:20;4.67;;;3.40;;
17171;SDS011;8701;50.150;8.756;2023-09-07T18:16:22;5.00;;;4.40;;
17171;SDS011;8701;50.150;8.756;2023-09-07T18:20:26;4.30;;;3.70;;
17171;SDS011;8701;50.150;8.756;2023-09-07T18:24:31;8.70;;;4.13;;
17171;SDS011;8701;50.150;8.756;2023-09-07T18:28:33;6.23;;;4.33;;
17171;SDS011;8701;50.150;8.756;2023-09-07T18:32:36;4.47;;;4.07;;
17171;SDS011;8701;50.150;8.756;2023-09-07T18:36:38;6.70;;;4.27;;
17171;SDS011;8701;50.150;8.756;2023-09-07T18:40:44;4.47;;;3.53;;
17171;SDS011;8701;50.150;8.756;2023-09-07T18:44:50;6.23;;;4.67;;
17171;SDS011;8701;50.150;8.756;2023-09-07T18:48:52;8.13;;;6.70;;
17171;SDS011;8701;50.150;8.756;2023-09-07T18:52:54;8.97;;;7.40;;
17171;SDS011;8701;50.150;8.756;2023-09-07T18:56:58;14.00;;;7.87;;
17171;SDS011;8701;50.150;8.756;2023-09-07T19:01:00;9.63;;;6.80;;
17171;SDS011;8701;50.150;8.756;2023-09-07T19:05:12;6.60;;;5.50;;
17171;SDS011;8701;50.150;8.756;2023-09-07T19:09:14;8.50;;;5.43;;
17171;SDS011;8701;50.150;8.756;2023-09-07T19:13:18;7.20;;;5.63;;
17171;SDS011;8701;50.150;8.756;2023-09-07T19:17:21;8.90;;;5.90;;
17171;SDS011;8701;50.150;8.756;2023-09-07T19:21:23;6.73;;;6.03;;
17171;SDS011;8701;50.150;8.756;2023-09-07T19:25:26;9.20;;;5.97;;
17171;SDS011;8701;50.150;8.756;2023-09-07T19:29:31;7.90;;;5.37;;
17171;SDS011;8701;50.150;8.756;2023-09-07T19:33:34;6.80;;;5.40;;
17171;SDS011;8701;50.150;8.756;2023-09-07T19:37:36;6.07;;;4.80;;
17171;SDS011;8701;50.150;8.756;2023-09-07T19:41:38;7.27;;;4.47;;
17171;SDS011;8701;50.150;8.756;2023-09-07T19:45:45;6.00;;;4.77;;
17171;SDS011;8701;50.150;8.756;2023-09-07T19:49:47;5.23;;;4.57;;
17171;SDS011;8701;50.150;8.756;2023-09-07T19:53:49;4.73;;;4.03;;
17171;SDS011;8701;50.150;8.756;2023-09-07T19:57:52;8.20;;;4.50;;
17171;SDS011;8701;50.150;8.756;2023-09-07T20:01:55;9.77;;;5.17;;
17171;SDS011;8701;50.150;8.756;2023-09-07T20:05:59;5.73;;;4.50;;
17171;SDS011;8701;50.150;8.756;2023-09-07T20:10:01;8.57;;;5.10;;
17171;SDS011;8701;50.150;8.756;2023-09-07T20:14:03;10.00;;;6.00;;
17171;SDS011;8701;50.150;8.756;2023-09-07T20:18:08;16.60;;;5.73;;
17171;SDS011;8701;50.150;8.756;2023-09-07T20:22:12;9.50;;;5.23;;
17171;SDS011;8701;50.150;8.756;2023-09-07T20:26:16;7.63;;;5.83;;
17171;SDS011;8701;50.150;8.756;2023-09-07T20:30:18;10.50;;;5.63;;
17171;SDS011;8701;50.150;8.756;2023-09-07T20:34:22;6.10;;;4.73;;
17171;SDS011;8701;50.150;8.756;2023-09-07T20:38:25;7.03;;;5.40;;
17171;SDS011;8701;50.150;8.756;2023-09-07T20:42:28;15.53;;;6.07;;
17171;SDS011;8701;50.150;8.756;2023-09-07T20:46:30;5.57;;;4.90;;
17171;SDS011;8701;50.150;8.756;2023-09-07T20:50:33;8.43;;;5.20;;
17171;SDS011;8701;50.150;8.756;2023-09-07T20:54:37;12.43;;;5.10;;
17171;SDS011;8701;50.150;8.756;2023-09-07T20:58:39;9.70;;;6.30;;
17171;SDS011;8701;50.150;8.756;2023-09-07T21:02:42;8.00;;;6.10;;
17171;SDS011;8701;50.150;8.756;2023-09-07T21:06:45;9.20;;;5.60;;
17171;SDS011;8701;50.150;8.756;2023-09-07T21:10:47;7.80;;;5.63;;
17171;SDS011;8701;50.150;8.756;2023-09-07T21:14:50;7.20;;;5.60;;
17171;SDS011;8701;50.150;8.756;2023-09-07T21:18:52;12.97;;;5.63;;
17171;SDS011;8701;50.150;8.756;2023-09-07T21:22:56;10.43;;;5.60;;
17171;SDS011;8701;50.150;8.756;2023-09-07T21:26:59;16.50;;;6.20;;
17171;SDS011;8701;50.150;8.756;2023-09-07T21:31:01;7.80;;;4.90;;
17171;SDS011;8701;50.150;8.756;2023-09-07T21:35:04;8.10;;;5.67;;
17171;SDS011;8701;50.150;8.756;2023-09-07T21:39:08;12.80;;;6.30;;
17171;SDS011;8701;50.150;8.756;2023-09-07T21:43:10;6.57;;;5.30;;
17171;SDS011;8701;50.150;8.756;2023-09-07T21:47:12;12.40;;;5.43;;
17171;SDS011;8701;50.150;8.756;2023-09-07T21:51:15;15.53;;;6.00;;
17171;SDS011;8701;50.150;8.756;2023-09-07T21:55:19;7.97;;;6.33;;
17171;SDS011;8701;50.150;8.756;2023-09-07T21:59:21;7.03;;;5.20;;
17171;SDS011;8701;50.150;8.756;2023-09-07T22:03:24;7.20;;;5.10;;
17171;SDS011;8701;50.150;8.756;2023-09-07T22:07:26;8.90;;;6.00;;
17171;SDS011;8701;50.150;8.756;2023-09-07T22:11:30;7.43;;;5.30;;
17171;SDS011;8701;50.150;8.756;2023-09-07T22:15:33;6.80;;;5.43;;
17171;SDS011;8701;50.150;8.756;2023-09-07T22:19:35;7.83;;;5.20;;
17171;SDS011;8701;50.150;8.756;2023-09-07T22:23:38;11.73;;;6.03;;
17171;SDS011;8701;50.150;8.756;2023-09-07T22:27:42;8.83;;;5.53;;
17171;SDS011;8701;50.150;8.756;2023-09-07T22:31:44;5.80;;;4.97;;
17171;SDS011;8701;50.150;8.756;2023-09-07T22:35:47;5.43;;;4.67;;
17171;SDS011;8701;50.150;8.756;2023-09-07T22:39:49;14.07;;;4.80;;
17171;SDS011;8701;50.150;8.756;2023-09-07T22:43:52;6.20;;;5.40;;
17171;SDS011;8701;50.150;8.756;2023-09-07T22:47:55;8.77;;;5.10;;
17171;SDS011;8701;50.150;8.756;2023-09-07T22:51:58;9.00;;;5.47;;
17171;SDS011;8701;50.150;8.756;2023-09-07T22:56:00;5.77;;;5.20;;
17171;SDS011;8701;50.150;8.756;2023-09-07T23:00:05;7.57;;;5.20;;
17171;SDS011;8701;50.150;8.756;2023-09-07T23:04:08;5.97;;;4.83;;
17171;SDS011;8701;50.150;8.756;2023-09-07T23:08:10;8.30;;;5.17;;
17171;SDS011;8701;50.150;8.756;2023-09-07T23:12:13;8.20;;;5.40;;
17171;SDS011;8701;50.150;8.756;2023-09-07T23:16:16;7.77;;;5.43;;
17171;SDS011;8701;50.150;8.756;2023-09-07T23:20:19;8.63;;;5.10;;
17171;SDS011;8701;50.150;8.756;2023-09-07T23:24:21;6.33;;;5.23;;
17171;SDS011;8701;50.150;8.756;2023-09-07T23:28:23;6.23;;;5.40;;
17171;SDS011;8701;50.150;8.756;2023-09-07T23:32:27;5.77;;;5.17;;
17171;SDS011;8701;50.150;8.756;2023-09-07T23:36:29;7.73;;;5.30;;
17171;SDS011;8701;50.150;8.756;2023-09-07T23:40:32;6.70;;;5.53;;
17171;SDS011;8701;50.150;8.756;2023-09-07T23:44:34;11.70;;;5.87;;
17171;SDS011;8701;50.150;8.756;2023-09-07T23:48:39;7.93;;;5.70;;
17171;SDS011;8701;50.150;8.756;2023-09-07T23:52:41;9.23;;;5.33;;
17171;SDS011;8701;50.150;8.756;2023-09-07T23:56:44;8.17;;;5.00;;
